sensor_id;sensor_type;location;lat;lon;timestamp;P1;P2;P0
56495;PMS5003;42804;55.762;38.084;2024-02-26T00:02:24;12.20;9.60;6.00
56495;PMS5003;42804;55.762;38.084;2024-02-26T00:04:53;10.80;7.80;5.40
56495;PMS5003;42804;55.762;38.084;2024-02-26T00:07:21;12.60;9.20;4.00
56495;PMS5003;42804;55.762;38.084;2024-02-26T00:09:49;12.60;12.40;6.40
56495;PMS5003;42804;55.762;38.084;2024-02-26T00:12:19;3.40;3.40;3.00
56495;PMS5003;42804;55.762;38.084;2024-02-26T00:14:47;16.00;12.00;7.40
56495;PMS5003;42804;55.762;38.084;2024-02-26T00:17:16;13.00;10.40;6.40
56495;PMS5003;42804;55.762;38.084;2024-02-26T00:19:44;6.80;6.00;1.00
56495;PMS5003;42804;55.762;38.084;2024-02-26T00:22:11;12.00;9.40;6.00
56495;PMS5003;42804;55.762;38.084;2024-02-26T00:24:40;17.00;13.40;7.40
56495;PMS5003;42804;55.762;38.084;2024-02-26T00:27:08;11.60;10.40;6.00
56495;PMS5003;42804;55.762;38.084;2024-02-26T00:29:38;11.60;9.20;4.00
56495;PMS5003;42804;55.762;38.084;2024-02-26T00:32:06;7.40;4.00;3.00
56495;PMS5003;42804;55.762;38.084;2024-02-26T00:34:35;11.60;9.00;4.40
56495;PMS5003;42804;55.762;38.084;2024-02-26T00:37:03;9.20;5.20;2.20
56495;PMS5003;42804;55.762;38.084;2024-02-26T00:39:31;9.40;9.40;4.40
56495;PMS5003;42804;55.762;38.084;2024-02-26T00:41:59;9.00;6.80;3.00
56495;PMS5003;42804;55.762;38.084;2024-02-26T00:44:28;12.40;9.20;4.00
56495;PMS5003;42804;55.762;38.084;2024-02-26T00:46:57;8.80;6.80;4.40
56495;PMS5003;42804;55.762;38.084;2024-02-26T00:49:25;13.20;9.60;6.00
56495;PMS5003;42804;55.762;38.084;2024-02-26T00:51:54;9.80;9.00;4.00
56495;PMS5003;42804;55.762;38.084;2024-02-26T00:54:22;11.60;8.60;4.00
56495;PMS5003;42804;55.762;38.084;2024-02-26T00:56:50;8.60;8.60;4.80
56495;PMS5003;42804;55.762;38.084;2024-02-26T00:59:19;10.80;7.00;4.00
56495;PMS5003;42804;55.762;38.084;2024-02-26T01:01:47;9.00;7.00;3.60
56495;PMS5003;42804;55.762;38.084;2024-02-26T01:04:17;10.80;8.60;4.00
56495;PMS5003;42804;55.762;38.084;2024-02-26T01:06:45;10.20;7.00;3.80
56495;PMS5003;42804;55.762;38.084;2024-02-26T01:09:13;9.20;7.40;3.20
56495;PMS5003;42804;55.762;38.084;2024-02-26T01:11:42;5.60;4.00;1.00
56495;PMS5003;42804;55.762;38.084;2024-02-26T01:14:10;6.00;5.60;2.60
56495;PMS5003;42804;55.762;38.084;2024-02-26T01:16:38;2.60;0.80;0.00
56495;PMS5003;42804;55.762;38.084;2024-02-26T01:19:07;8.40;6.00;3.80
56495;PMS5003;42804;55.762;38.084;2024-02-26T01:21:37;11.40;6.80;3.20
56495;PMS5003;42804;55.762;38.084;2024-02-26T01:24:05;6.60;6.60;1.00
56495;PMS5003;42804;55.762;38.084;2024-02-26T01:26:34;7.00;6.00;3.00
56495;PMS5003;42804;55.762;38.084;2024-02-26T01:29:02;6.20;3.60;0.00
56495;PMS5003;42804;55.762;38.084;2024-02-26T01:31:30;4.40;4.00;3.00
56495;PMS5003;42804;55.762;38.084;2024-02-26T01:33:58;9.20;8.60;4.40
56495;PMS5003;42804;55.762;38.084;2024-02-26T01:36:27;6.60;6.00;1.80
56495;PMS5003;42804;55.762;38.084;2024-02-26T01:38:56;6.20;6.00;3.00
56495;PMS5003;42804;55.762;38.084;2024-02-26T01:41:24;7.40;7.40;3.00
56495;PMS5003;42804;55.762;38.084;2024-02-26T01:43:52;6.60;6.20;4.00
56495;PMS5003;42804;55.762;38.084;2024-02-26T01:46:21;8.60;7.80;4.00
56495;PMS5003;42804;55.762;38.084;2024-02-26T01:48:50;9.60;9.20;5.20
56495;PMS5003;42804;55.762;38.084;2024-02-26T01:51:18;7.40;7.00;3.00
56495;PMS5003;42804;55.762;38.084;2024-02-26T01:53:46;7.00;6.20;3.40
56495;PMS5003;42804;55.762;38.084;2024-02-26T01:56:16;6.80;5.20;3.60
56495;PMS5003;42804;55.762;38.084;2024-02-26T01:58:45;7.40;6.00;3.40
56495;PMS5003;42804;55.762;38.084;2024-02-26T02:01:13;7.80;6.40;4.00
56495;PMS5003;42804;55.762;38.084;2024-02-26T02:03:44;7.00;5.25;3.00
56495;PMS5003;42804;55.762;38.084;2024-02-26T02:06:12;10.25;6.25;3.00
56495;PMS5003;42804;55.762;38.084;2024-02-26T02:08:41;10.60;8.60;4.00
56495;PMS5003;42804;55.762;38.084;2024-02-26T02:11:10;13.00;9.60;5.20
56495;PMS5003;42804;55.762;38.084;2024-02-26T02:13:40;7.00;7.00;3.20
56495;PMS5003;42804;55.762;38.084;2024-02-26T02:16:08;10.80;10.00;6.20
56495;PMS5003;42804;55.762;38.084;2024-02-26T02:18:36;7.80;6.80;4.00
56495;PMS5003;42804;55.762;38.084;2024-02-26T02:21:06;9.75;7.00;3.75
56495;PMS5003;42804;55.762;38.084;2024-02-26T02:23:34;9.75;6.75;4.50
56495;PMS5003;42804;55.762;38.084;2024-02-26T02:26:02;13.00;9.50;4.00
56495;PMS5003;42804;55.762;38.084;2024-02-26T02:28:30;9.20;7.00;4.00
56495;PMS5003;42804;55.762;38.084;2024-02-26T02:30:59;9.50;7.00;4.00
56495;PMS5003;42804;55.762;38.084;2024-02-26T02:33:28;12.60;10.40;5.60
56495;PMS5003;42804;55.762;38.084;2024-02-26T02:35:56;8.60;7.00;3.00
56495;PMS5003;42804;55.762;38.084;2024-02-26T02:38:27;7.80;6.40;3.80
56495;PMS5003;42804;55.762;38.084;2024-02-26T02:40:56;7.00;6.00;3.00
56495;PMS5003;42804;55.762;38.084;2024-02-26T02:43:24;10.80;9.40;3.60
56495;PMS5003;42804;55.762;38.084;2024-02-26T02:45:53;9.00;8.20;4.80
56495;PMS5003;42804;55.762;38.084;2024-02-26T02:48:21;9.20;7.40;3.80
56495;PMS5003;42804;55.762;38.084;2024-02-26T02:50:49;7.20;6.80;4.00
56495;PMS5003;42804;55.762;38.084;2024-02-26T02:53:18;9.50;8.50;3.50
56495;PMS5003;42804;55.762;38.084;2024-02-26T02:55:47;9.50;7.25;4.00
56495;PMS5003;42804;55.762;38.084;2024-02-26T02:58:15;11.20;9.00;6.00
56495;PMS5003;42804;55.762;38.084;2024-02-26T03:00:43;11.20;10.40;5.20
56495;PMS5003;42804;55.762;38.084;2024-02-26T03:03:12;11.00;7.00;3.75
56495;PMS5003;42804;55.762;38.084;2024-02-26T03:05:40;7.40;7.00;4.00
56495;PMS5003;42804;55.762;38.084;2024-02-26T03:08:08;9.50;6.25;3.75
56495;PMS5003;42804;55.762;38.084;2024-02-26T03:10:37;6.50;6.00;3.00
56495;PMS5003;42804;55.762;38.084;2024-02-26T03:13:07;5.20;3.00;1.00
56495;PMS5003;42804;55.762;38.084;2024-02-26T03:15:35;10.40;6.60;3.00
56495;PMS5003;42804;55.762;38.084;2024-02-26T03:18:03;6.60;6.00;4.00
56495;PMS5003;42804;55.762;38.084;2024-02-26T03:20:32;8.00;7.00;6.00
56495;PMS5003;42804;55.762;38.084;2024-02-26T03:23:00;11.80;6.80;3.80
56495;PMS5003;42804;55.762;38.084;2024-02-26T03:25:29;11.40;6.60;3.80
56495;PMS5003;42804;55.762;38.084;2024-02-26T03:27:57;4.60;3.60;0.40
56495;PMS5003;42804;55.762;38.084;2024-02-26T03:30:27;7.80;7.80;4.00
56495;PMS5003;42804;55.762;38.084;2024-02-26T03:32:55;2.20;1.00;1.00
56495;PMS5003;42804;55.762;38.084;2024-02-26T03:35:23;9.60;7.00;4.00
56495;PMS5003;42804;55.762;38.084;2024-02-26T03:37:52;12.00;8.60;3.00
56495;PMS5003;42804;55.762;38.084;2024-02-26T03:40:20;9.80;6.60;4.00
56495;PMS5003;42804;55.762;38.084;2024-02-26T03:42:48;8.20;7.00;4.40
56495;PMS5003;42804;55.762;38.084;2024-02-26T03:45:17;5.60;4.00;1.80
56495;PMS5003;42804;55.762;38.084;2024-02-26T03:47:47;8.60;7.00;3.60
56495;PMS5003;42804;55.762;38.084;2024-02-26T03:50:15;9.00;8.60;3.40
56495;PMS5003;42804;55.762;38.084;2024-02-26T03:52:44;10.80;7.00;3.40
56495;PMS5003;42804;55.762;38.084;2024-02-26T03:55:12;10.80;9.20;4.00
56495;PMS5003;42804;55.762;38.084;2024-02-26T03:57:40;11.20;9.60;4.40
56495;PMS5003;42804;55.762;38.084;2024-02-26T04:00:09;10.40;8.60;6.00
56495;PMS5003;42804;55.762;38.084;2024-02-26T04:02:37;9.40;7.00;5.20
56495;PMS5003;42804;55.762;38.084;2024-02-26T04:05:10;7.00;6.00;4.00
56495;PMS5003;42804;55.762;38.084;2024-02-26T04:07:38;12.20;10.40;5.80
56495;PMS5003;42804;55.762;38.084;2024-02-26T04:10:08;1.00;1.00;0.60
56495;PMS5003;42804;55.762;38.084;2024-02-26T04:12:38;8.60;7.40;4.00
56495;PMS5003;42804;55.762;38.084;2024-02-26T04:15:07;9.00;7.00;4.80
56495;PMS5003;42804;55.762;38.084;2024-02-26T04:17:36;6.00;6.00;3.60
56495;PMS5003;42804;55.762;38.084;2024-02-26T04:20:06;7.40;6.60;3.00
56495;PMS5003;42804;55.762;38.084;2024-02-26T04:22:36;8.20;7.00;4.00
56495;PMS5003;42804;55.762;38.084;2024-02-26T04:25:04;9.00;8.80;6.00
56495;PMS5003;42804;55.762;38.084;2024-02-26T04:27:32;12.20;9.60;4.80
56495;PMS5003;42804;55.762;38.084;2024-02-26T04:30:01;12.60;11.60;6.00
56495;PMS5003;42804;55.762;38.084;2024-02-26T04:32:29;11.60;8.40;5.40
56495;PMS5003;42804;55.762;38.084;2024-02-26T04:34:57;10.00;9.00;5.20
56495;PMS5003;42804;55.762;38.084;2024-02-26T04:37:26;10.60;9.00;4.40
56495;PMS5003;42804;55.762;38.084;2024-02-26T04:39:59;8.80;7.40;1.00
56495;PMS5003;42804;55.762;38.084;2024-02-26T04:42:28;11.00;10.00;6.00
56495;PMS5003;42804;55.762;38.084;2024-02-26T04:44:56;8.20;7.00;4.40
56495;PMS5003;42804;55.762;38.084;2024-02-26T04:47:25;9.80;5.20;2.60
56495;PMS5003;42804;55.762;38.084;2024-02-26T04:49:53;14.20;10.00;6.00
56495;PMS5003;42804;55.762;38.084;2024-02-26T04:52:21;9.00;9.00;5.60
56495;PMS5003;42804;55.762;38.084;2024-02-26T04:54:48;12.00;9.00;6.00
56495;PMS5003;42804;55.762;38.084;2024-02-26T04:57:18;10.80;8.60;4.00
56495;PMS5003;42804;55.762;38.084;2024-02-26T04:59:46;9.00;7.80;4.00
56495;PMS5003;42804;55.762;38.084;2024-02-26T05:02:14;6.40;5.60;1.00
56495;PMS5003;42804;55.762;38.084;2024-02-26T05:04:43;9.80;7.00;5.20
56495;PMS5003;42804;55.762;38.084;2024-02-26T05:07:11;9.40;9.00;5.60
56495;PMS5003;42804;55.762;38.084;2024-02-26T05:09:40;7.00;7.00;4.00
56495;PMS5003;42804;55.762;38.084;2024-02-26T05:12:09;6.00;6.00;4.00
56495;PMS5003;42804;55.762;38.084;2024-02-26T05:14:38;9.60;9.00;4.00
56495;PMS5003;42804;55.762;38.084;2024-02-26T05:17:07;12.00;10.00;4.00
56495;PMS5003;42804;55.762;38.084;2024-02-26T05:19:35;4.00;4.00;3.00
56495;PMS5003;42804;55.762;38.084;2024-02-26T05:22:03;7.80;5.60;2.20
56495;PMS5003;42804;55.762;38.084;2024-02-26T05:24:31;10.80;9.20;6.00
56495;PMS5003;42804;55.762;38.084;2024-02-26T05:27:00;10.00;8.40;4.80
56495;PMS5003;42804;55.762;38.084;2024-02-26T05:29:28;12.40;9.60;4.00
56495;PMS5003;42804;55.762;38.084;2024-02-26T05:31:58;10.75;9.00;5.50
56495;PMS5003;42804;55.762;38.084;2024-02-26T05:34:26;10.00;8.20;4.00
56495;PMS5003;42804;55.762;38.084;2024-02-26T05:36:54;10.00;9.20;5.60
56495;PMS5003;42804;55.762;38.084;2024-02-26T05:39:23;10.80;9.20;6.20
56495;PMS5003;42804;55.762;38.084;2024-02-26T05:41:51;9.00;6.20;4.00
56495;PMS5003;42804;55.762;38.084;2024-02-26T05:44:20;10.00;9.00;6.00
56495;PMS5003;42804;55.762;38.084;2024-02-26T05:46:48;12.00;8.60;4.00
56495;PMS5003;42804;55.762;38.084;2024-02-26T05:49:18;13.00;8.80;3.80
56495;PMS5003;42804;55.762;38.084;2024-02-26T05:51:46;4.80;3.20;1.80
56495;PMS5003;42804;55.762;38.084;2024-02-26T05:54:14;9.20;8.20;4.00
56495;PMS5003;42804;55.762;38.084;2024-02-26T05:56:42;12.60;7.80;6.00
56495;PMS5003;42804;55.762;38.084;2024-02-26T05:59:11;11.60;9.60;4.40
56495;PMS5003;42804;55.762;38.084;2024-02-26T06:01:39;6.40;6.20;4.00
56495;PMS5003;42804;55.762;38.084;2024-02-26T06:04:10;6.40;6.40;3.00
56495;PMS5003;42804;55.762;38.084;2024-02-26T06:06:40;11.20;9.60;6.40
56495;PMS5003;42804;55.762;38.084;2024-02-26T06:09:14;17.00;11.80;6.40
56495;PMS5003;42804;55.762;38.084;2024-02-26T06:11:42;10.25;9.00;6.00
56495;PMS5003;42804;55.762;38.084;2024-02-26T06:14:12;6.40;3.80;1.40
56495;PMS5003;42804;55.762;38.084;2024-02-26T06:16:41;4.00;4.00;1.40
56495;PMS5003;42804;55.762;38.084;2024-02-26T06:19:09;15.00;13.00;6.00
56495;PMS5003;42804;55.762;38.084;2024-02-26T06:21:41;13.00;10.80;4.80
56495;PMS5003;42804;55.762;38.084;2024-02-26T06:24:09;10.00;9.00;6.00
56495;PMS5003;42804;55.762;38.084;2024-02-26T06:26:37;9.00;6.75;3.00
56495;PMS5003;42804;55.762;38.084;2024-02-26T06:29:05;7.50;6.50;4.00
56495;PMS5003;42804;55.762;38.084;2024-02-26T06:31:35;13.50;11.25;4.50
56495;PMS5003;42804;55.762;38.084;2024-02-26T06:34:04;7.50;7.50;3.25
56495;PMS5003;42804;55.762;38.084;2024-02-26T06:36:32;9.25;5.00;3.50
56495;PMS5003;42804;55.762;38.084;2024-02-26T06:39:03;10.00;9.00;3.75
56495;PMS5003;42804;55.762;38.084;2024-02-26T06:41:32;13.25;9.00;6.00
56495;PMS5003;42804;55.762;38.084;2024-02-26T06:44:00;9.75;9.25;3.75
56495;PMS5003;42804;55.762;38.084;2024-02-26T06:46:29;9.25;8.50;6.00
56495;PMS5003;42804;55.762;38.084;2024-02-26T06:48:57;11.75;10.75;6.00
56495;PMS5003;42804;55.762;38.084;2024-02-26T06:51:26;17.25;11.00;6.00
56495;PMS5003;42804;55.762;38.084;2024-02-26T06:53:55;9.75;9.75;4.50
56495;PMS5003;42804;55.762;38.084;2024-02-26T06:56:24;9.00;8.50;4.00
56495;PMS5003;42804;55.762;38.084;2024-02-26T06:58:53;12.00;9.25;5.50
56495;PMS5003;42804;55.762;38.084;2024-02-26T07:01:21;13.50;9.00;6.25
56495;PMS5003;42804;55.762;38.084;2024-02-26T07:03:49;8.00;8.00;4.00
56495;PMS5003;42804;55.762;38.084;2024-02-26T07:06:17;11.00;9.75;4.50
56495;PMS5003;42804;55.762;38.084;2024-02-26T07:08:45;9.50;7.00;3.25
56495;PMS5003;42804;55.762;38.084;2024-02-26T07:11:14;8.00;6.50;3.25
56495;PMS5003;42804;55.762;38.084;2024-02-26T07:13:43;10.00;9.00;4.00
56495;PMS5003;42804;55.762;38.084;2024-02-26T07:16:12;18.50;13.25;6.00
56495;PMS5003;42804;55.762;38.084;2024-02-26T07:18:40;12.00;10.50;6.00
56495;PMS5003;42804;55.762;38.084;2024-02-26T07:21:08;5.50;3.00;0.00
56495;PMS5003;42804;55.762;38.084;2024-02-26T07:23:36;3.25;3.00;1.00
56495;PMS5003;42804;55.762;38.084;2024-02-26T07:26:05;10.00;8.50;4.00
56495;PMS5003;42804;55.762;38.084;2024-02-26T07:28:35;9.75;9.00;6.00
56495;PMS5003;42804;55.762;38.084;2024-02-26T07:31:04;7.00;6.20;3.00
56495;PMS5003;42804;55.762;38.084;2024-02-26T07:33:33;10.00;10.00;6.50
56495;PMS5003;42804;55.762;38.084;2024-02-26T07:36:01;13.00;10.25;6.50
56495;PMS5003;42804;55.762;38.084;2024-02-26T07:38:29;11.75;8.50;4.00
56495;PMS5003;42804;55.762;38.084;2024-02-26T07:41:10;9.75;9.25;5.00
56495;PMS5003;42804;55.762;38.084;2024-02-26T07:43:39;17.00;15.50;7.00
56495;PMS5003;42804;55.762;38.084;2024-02-26T07:46:12;18.00;13.50;6.50
56495;PMS5003;42804;55.762;38.084;2024-02-26T07:48:40;13.00;12.00;6.25
56495;PMS5003;42804;55.762;38.084;2024-02-26T07:51:11;15.00;10.50;6.25
56495;PMS5003;42804;55.762;38.084;2024-02-26T07:53:40;16.00;12.75;7.00
56495;PMS5003;42804;55.762;38.084;2024-02-26T07:56:08;10.50;9.25;4.00
56495;PMS5003;42804;55.762;38.084;2024-02-26T07:58:36;13.25;11.00;5.75
56495;PMS5003;42804;55.762;38.084;2024-02-26T08:01:05;12.50;11.75;7.00
56495;PMS5003;42804;55.762;38.084;2024-02-26T08:03:35;15.50;9.75;4.00
56495;PMS5003;42804;55.762;38.084;2024-02-26T08:06:05;14.00;12.25;6.50
56495;PMS5003;42804;55.762;38.084;2024-02-26T08:08:33;14.50;11.50;5.00
56495;PMS5003;42804;55.762;38.084;2024-02-26T08:11:01;19.25;15.25;9.50
56495;PMS5003;42804;55.762;38.084;2024-02-26T08:13:30;15.75;15.00;7.00
56495;PMS5003;42804;55.762;38.084;2024-02-26T08:15:59;15.75;15.00;9.00
56495;PMS5003;42804;55.762;38.084;2024-02-26T08:18:27;14.75;12.00;7.00
56495;PMS5003;42804;55.762;38.084;2024-02-26T08:20:57;17.00;12.75;7.00
56495;PMS5003;42804;55.762;38.084;2024-02-26T08:23:26;15.75;13.00;7.00
56495;PMS5003;42804;55.762;38.084;2024-02-26T08:25:54;21.00;13.25;7.50
56495;PMS5003;42804;55.762;38.084;2024-02-26T08:28:23;23.50;18.00;10.00
56495;PMS5003;42804;55.762;38.084;2024-02-26T08:30:51;14.50;12.25;8.00
56495;PMS5003;42804;55.762;38.084;2024-02-26T08:33:22;17.75;16.50;9.25
56495;PMS5003;42804;55.762;38.084;2024-02-26T08:35:51;17.33;15.33;9.67
56495;PMS5003;42804;55.762;38.084;2024-02-26T08:38:20;22.00;18.75;10.00
56495;PMS5003;42804;55.762;38.084;2024-02-26T08:40:48;19.50;15.00;8.50
56495;PMS5003;42804;55.762;38.084;2024-02-26T08:43:17;13.50;12.25;7.00
56495;PMS5003;42804;55.762;38.084;2024-02-26T08:45:46;18.00;12.00;8.00
56495;PMS5003;42804;55.762;38.084;2024-02-26T08:48:14;16.50;16.50;9.25
56495;PMS5003;42804;55.762;38.084;2024-02-26T08:50:42;15.25;13.00;9.00
56495;PMS5003;42804;55.762;38.084;2024-02-26T08:53:11;21.75;17.00;10.00
56495;PMS5003;42804;55.762;38.084;2024-02-26T08:55:41;19.00;16.50;9.75
56495;PMS5003;42804;55.762;38.084;2024-02-26T08:58:09;17.75;15.25;11.50
56495;PMS5003;42804;55.762;38.084;2024-02-26T09:00:37;10.00;9.25;4.00
56495;PMS5003;42804;55.762;38.084;2024-02-26T09:03:06;20.00;17.50;10.00
56495;PMS5003;42804;55.762;38.084;2024-02-26T09:05:34;20.50;13.00;7.00
56495;PMS5003;42804;55.762;38.084;2024-02-26T09:08:03;14.50;10.00;6.25
56495;PMS5003;42804;55.762;38.084;2024-02-26T09:10:31;7.75;3.50;3.00
56495;PMS5003;42804;55.762;38.084;2024-02-26T09:13:02;12.00;11.00;6.50
56495;PMS5003;42804;55.762;38.084;2024-02-26T09:15:30;15.25;13.00;7.00
56495;PMS5003;42804;55.762;38.084;2024-02-26T09:18:01;13.00;11.00;6.25
56495;PMS5003;42804;55.762;38.084;2024-02-26T09:20:30;21.00;18.50;11.00
56495;PMS5003;42804;55.762;38.084;2024-02-26T09:22:58;22.75;18.00;10.00
56495;PMS5003;42804;55.762;38.084;2024-02-26T09:25:27;20.25;16.00;9.50
56495;PMS5003;42804;55.762;38.084;2024-02-26T09:27:55;18.50;12.00;6.50
56495;PMS5003;42804;55.762;38.084;2024-02-26T09:30:24;20.50;18.00;10.00
56495;PMS5003;42804;55.762;38.084;2024-02-26T09:32:53;18.00;16.75;9.25
56495;PMS5003;42804;55.762;38.084;2024-02-26T09:35:21;12.25;9.75;4.50
56495;PMS5003;42804;55.762;38.084;2024-02-26T09:37:50;15.50;14.50;9.50
56495;PMS5003;42804;55.762;38.084;2024-02-26T09:40:18;18.50;15.50;10.00
56495;PMS5003;42804;55.762;38.084;2024-02-26T09:42:54;16.00;12.50;9.75
56495;PMS5003;42804;55.762;38.084;2024-02-26T09:45:28;21.00;18.25;12.00
56495;PMS5003;42804;55.762;38.084;2024-02-26T09:47:59;14.50;13.50;7.00
56495;PMS5003;42804;55.762;38.084;2024-02-26T09:50:29;17.50;15.00;8.50
56495;PMS5003;42804;55.762;38.084;2024-02-26T09:52:57;16.75;14.50;10.00
56495;PMS5003;42804;55.762;38.084;2024-02-26T09:55:26;20.25;18.50;10.00
56495;PMS5003;42804;55.762;38.084;2024-02-26T09:57:55;19.00;18.75;10.00
56495;PMS5003;42804;55.762;38.084;2024-02-26T10:00:24;18.00;16.00;9.75
56495;PMS5003;42804;55.762;38.084;2024-02-26T10:02:57;22.00;17.00;10.00
56495;PMS5003;42804;55.762;38.084;2024-02-26T10:05:27;19.00;15.00;9.00
56495;PMS5003;42804;55.762;38.084;2024-02-26T10:07:57;19.75;15.75;9.00
56495;PMS5003;42804;55.762;38.084;2024-02-26T10:10:28;22.00;19.00;12.50
56495;PMS5003;42804;55.762;38.084;2024-02-26T10:12:57;20.00;16.50;7.50
56495;PMS5003;42804;55.762;38.084;2024-02-26T10:15:25;21.00;15.00;7.50
56495;PMS5003;42804;55.762;38.084;2024-02-26T10:17:54;10.50;10.00;6.50
56495;PMS5003;42804;55.762;38.084;2024-02-26T10:20:24;15.50;13.50;8.00
56495;PMS5003;42804;55.762;38.084;2024-02-26T10:22:55;21.00;17.50;11.25
56495;PMS5003;42804;55.762;38.084;2024-02-26T10:25:23;18.75;16.00;10.00
56495;PMS5003;42804;55.762;38.084;2024-02-26T10:27:51;12.25;10.00;6.00
56495;PMS5003;42804;55.762;38.084;2024-02-26T10:30:20;26.50;18.25;10.00
56495;PMS5003;42804;55.762;38.084;2024-02-26T10:32:49;16.50;13.50;7.50
56495;PMS5003;42804;55.762;38.084;2024-02-26T10:35:18;20.50;18.50;10.75
56495;PMS5003;42804;55.762;38.084;2024-02-26T10:37:49;9.25;7.50;3.50
56495;PMS5003;42804;55.762;38.084;2024-02-26T10:40:18;20.50;18.50;11.50
56495;PMS5003;42804;55.762;38.084;2024-02-26T10:42:46;16.00;14.50;11.00
56495;PMS5003;42804;55.762;38.084;2024-02-26T10:45:15;18.25;15.75;9.75
56495;PMS5003;42804;55.762;38.084;2024-02-26T10:47:43;21.00;18.75;13.00
56495;PMS5003;42804;55.762;38.084;2024-02-26T10:50:13;19.00;17.50;10.00
56495;PMS5003;42804;55.762;38.084;2024-02-26T10:52:43;20.25;17.00;10.50
56495;PMS5003;42804;55.762;38.084;2024-02-26T10:55:14;26.75;21.25;12.00
56495;PMS5003;42804;55.762;38.084;2024-02-26T10:57:45;18.75;17.50;11.50
56495;PMS5003;42804;55.762;38.084;2024-02-26T11:00:14;22.00;19.00;9.75
56495;PMS5003;42804;55.762;38.084;2024-02-26T11:03:02;20.00;16.50;8.25
56495;PMS5003;42804;55.762;38.084;2024-02-26T11:05:45;21.00;19.00;12.25
56495;PMS5003;42804;55.762;38.084;2024-02-26T11:08:15;24.50;21.00;12.50
56495;PMS5003;42804;55.762;38.084;2024-02-26T11:10:45;22.25;20.75;12.00
56495;PMS5003;42804;55.762;38.084;2024-02-26T11:13:15;22.75;19.50;12.50
56495;PMS5003;42804;55.762;38.084;2024-02-26T11:15:46;24.00;20.00;11.50
56495;PMS5003;42804;55.762;38.084;2024-02-26T11:18:15;15.75;14.00;8.00
56495;PMS5003;42804;55.762;38.084;2024-02-26T11:20:44;22.00;20.00;12.00
56495;PMS5003;42804;55.762;38.084;2024-02-26T11:23:13;22.25;18.25;11.50
56495;PMS5003;42804;55.762;38.084;2024-02-26T11:25:42;26.75;24.00;15.25
56495;PMS5003;42804;55.762;38.084;2024-02-26T11:28:12;25.50;19.00;12.00
56495;PMS5003;42804;55.762;38.084;2024-02-26T11:30:48;20.00;18.00;11.50
56495;PMS5003;42804;55.762;38.084;2024-02-26T11:33:17;17.50;16.50;11.75
56495;PMS5003;42804;55.762;38.084;2024-02-26T11:35:47;28.00;22.50;12.50
56495;PMS5003;42804;55.762;38.084;2024-02-26T11:38:17;25.00;21.25;12.75
56495;PMS5003;42804;55.762;38.084;2024-02-26T11:40:47;24.75;22.50;12.00
56495;PMS5003;42804;55.762;38.084;2024-02-26T11:43:18;19.50;17.00;10.00
56495;PMS5003;42804;55.762;38.084;2024-02-26T11:45:52;25.25;19.50;11.00
56495;PMS5003;42804;55.762;38.084;2024-02-26T11:48:23;24.00;18.00;11.50
56495;PMS5003;42804;55.762;38.084;2024-02-26T11:50:53;23.75;20.50;12.00
56495;PMS5003;42804;55.762;38.084;2024-02-26T11:53:23;18.75;16.50;11.50
56495;PMS5003;42804;55.762;38.084;2024-02-26T11:58:41;26.50;21.25;12.00
56495;PMS5003;42804;55.762;38.084;2024-02-26T12:04:00;22.50;20.25;12.00
56495;PMS5003;42804;55.762;38.084;2024-02-26T12:06:29;20.00;18.25;9.25
56495;PMS5003;42804;55.762;38.084;2024-02-26T12:08:58;17.75;17.75;10.50
56495;PMS5003;42804;55.762;38.084;2024-02-26T12:11:27;23.50;21.25;14.00
56495;PMS5003;42804;55.762;38.084;2024-02-26T12:13:56;20.00;17.00;11.00
56495;PMS5003;42804;55.762;38.084;2024-02-26T12:16:34;20.00;13.50;9.00
56495;PMS5003;42804;55.762;38.084;2024-02-26T12:19:03;23.25;20.50;13.25
56495;PMS5003;42804;55.762;38.084;2024-02-26T12:21:33;24.50;19.50;13.00
56495;PMS5003;42804;55.762;38.084;2024-02-26T12:24:12;20.25;18.00;10.00
56495;PMS5003;42804;55.762;38.084;2024-02-26T12:26:40;20.50;18.25;12.00
56495;PMS5003;42804;55.762;38.084;2024-02-26T12:29:12;16.25;15.50;9.00
56495;PMS5003;42804;55.762;38.084;2024-02-26T12:31:40;16.00;13.00;9.00
56495;PMS5003;42804;55.762;38.084;2024-02-26T12:34:09;21.75;19.00;10.00
56495;PMS5003;42804;55.762;38.084;2024-02-26T12:36:38;21.00;18.25;9.75
56495;PMS5003;42804;55.762;38.084;2024-02-26T12:39:07;19.25;14.50;9.00
56495;PMS5003;42804;55.762;38.084;2024-02-26T12:41:37;9.00;8.00;1.00
56495;PMS5003;42804;55.762;38.084;2024-02-26T12:44:08;23.00;20.50;11.50
56495;PMS5003;42804;55.762;38.084;2024-02-26T12:46:37;20.25;17.25;9.75
56495;PMS5003;42804;55.762;38.084;2024-02-26T12:49:06;15.50;11.00;4.00
56495;PMS5003;42804;55.762;38.084;2024-02-26T12:51:34;15.75;15.25;10.00
56495;PMS5003;42804;55.762;38.084;2024-02-26T12:54:03;16.00;13.00;7.00
56495;PMS5003;42804;55.762;38.084;2024-02-26T12:56:31;19.25;15.50;9.75
56495;PMS5003;42804;55.762;38.084;2024-02-26T12:59:00;11.00;10.00;6.75
56495;PMS5003;42804;55.762;38.084;2024-02-26T13:01:28;16.00;14.00;9.00
56495;PMS5003;42804;55.762;38.084;2024-02-26T13:03:58;18.00;12.00;8.00
56495;PMS5003;42804;55.762;38.084;2024-02-26T13:06:33;16.00;14.00;7.00
56495;PMS5003;42804;55.762;38.084;2024-02-26T13:09:02;3.00;1.00;0.00
56495;PMS5003;42804;55.762;38.084;2024-02-26T13:11:31;18.50;13.50;8.00
56495;PMS5003;42804;55.762;38.084;2024-02-26T13:14:00;16.25;14.50;7.50
56495;PMS5003;42804;55.762;38.084;2024-02-26T13:16:31;19.00;15.50;9.50
56495;PMS5003;42804;55.762;38.084;2024-02-26T13:19:09;18.75;15.75;7.00
56495;PMS5003;42804;55.762;38.084;2024-02-26T13:21:37;14.75;12.50;6.00
56495;PMS5003;42804;55.762;38.084;2024-02-26T13:24:06;16.50;13.25;6.50
56495;PMS5003;42804;55.762;38.084;2024-02-26T13:26:34;12.50;11.50;5.00
56495;PMS5003;42804;55.762;38.084;2024-02-26T13:29:02;19.25;17.50;9.50
56495;PMS5003;42804;55.762;38.084;2024-02-26T13:31:31;16.00;15.75;9.00
56495;PMS5003;42804;55.762;38.084;2024-02-26T13:33:59;4.50;1.00;1.00
56495;PMS5003;42804;55.762;38.084;2024-02-26T13:36:30;19.00;15.50;9.00
56495;PMS5003;42804;55.762;38.084;2024-02-26T13:38:58;12.00;8.75;5.50
56495;PMS5003;42804;55.762;38.084;2024-02-26T13:41:26;18.00;15.25;9.00
56495;PMS5003;42804;55.762;38.084;2024-02-26T13:43:55;17.00;12.25;6.00
56495;PMS5003;42804;55.762;38.084;2024-02-26T13:46:25;16.00;15.25;10.50
56495;PMS5003;42804;55.762;38.084;2024-02-26T13:48:53;18.50;16.00;8.75
56495;PMS5003;42804;55.762;38.084;2024-02-26T13:51:22;13.75;8.00;4.00
56495;PMS5003;42804;55.762;38.084;2024-02-26T13:53:56;19.50;16.00;6.00
56495;PMS5003;42804;55.762;38.084;2024-02-26T13:56:27;18.50;17.25;9.50
56495;PMS5003;42804;55.762;38.084;2024-02-26T13:58:55;17.00;14.25;9.00
56495;PMS5003;42804;55.762;38.084;2024-02-26T14:01:23;14.25;12.00;6.00
56495;PMS5003;42804;55.762;38.084;2024-02-26T14:03:52;12.00;9.75;6.25
56495;PMS5003;42804;55.762;38.084;2024-02-26T14:06:42;15.25;11.75;7.00
56495;PMS5003;42804;55.762;38.084;2024-02-26T14:09:12;20.00;15.75;9.00
56495;PMS5003;42804;55.762;38.084;2024-02-26T14:11:45;18.50;16.00;9.25